Sancti Spiritus, Cuba
Current Conditions -  °F | °C
As of 10:50 AM on Wednesday 26 Nov 2014 (Local Time) from MUSC Reporting Station
Broken Clouds Broken Clouds  
Wind Chill: 81°   Ceiling: 6000
Heat Index: 85°   Visibility: 6mi
Dew Point: 72°   Wind: 3mph
Humidity: 74%   Direction: 240°WSW
Pressure: 30.12"   Gusts: NA
Location:  21.93°N, 79.44°W
Report Text: MUSC 261450Z 24003KT 200V280 9000 FEW020 BKN060 27/22 Q1020
Loading
Personal Weather Stations






























Interactive Weather Map New forecast layout! Learn more

10-Day Weather Forecast

Advertisements
Track Severe Weather on mobile